Time;durP1;ratioP1;P1;durP2;ratioP2;P2;SDS_P1;SDS_P2;PMS_P1;PMS_P2;Temp;Humidity;BMP_temperature;BMP_pressure;BME280_temperature;BME280_humidity;BME280_pressure;Samples;Min_cycle;Max_cycle;Signal;HPM_P1;HPM_P2
2023/07/21 00:00:21;;;;;;;8.95;7.15;;;;;;;28.56;58.79;100749.00;5026649;28;20461;-81
2023/07/21 00:02:48;;;;;;;8.35;7.13;;;;;;;28.54;58.96;100749.00;5044965;28;20137;-81
2023/07/21 00:05:15;;;;;;;9.90;7.50;;;;;;;28.54;58.78;100751.69;5053262;28;20478;-80
2023/07/21 00:07:42;;;;;;;9.52;7.15;;;;;;;28.54;58.71;100750.81;5052863;28;20194;-81
2023/07/21 00:10:08;;;;;;;9.73;7.03;;;;;;;28.46;58.84;100739.31;5030140;28;20025;-82
2023/07/21 00:12:48;;;;;;;8.35;7.18;;;;;;;28.52;58.85;100753.53;5049628;28;20028;-81
2023/07/21 00:15:17;;;;;;;7.72;6.78;;;;;;;28.52;59.14;100758.91;5050516;28;20082;-81
2023/07/21 00:17:45;;;;;;;8.57;7.25;;;;;;;28.49;59.06;100758.06;5050912;28;20053;-82
2023/07/21 00:20:12;;;;;;;9.13;7.43;;;;;;;28.44;58.81;100750.06;5032806;28;20108;-82
2023/07/21 00:22:38;;;;;;;9.00;6.85;;;;;;;28.49;59.00;100758.06;5028529;28;20422;-82
2023/07/21 00:25:05;;;;;;;8.57;6.90;;;;;;;28.47;59.28;100759.88;5050921;28;20064;-82
2023/07/21 00:27:34;;;;;;;7.93;6.93;;;;;;;28.48;58.88;100762.53;5031747;28;20124;-82
2023/07/21 00:30:00;;;;;;;8.20;7.10;;;;;;;28.46;58.87;100763.50;5035553;28;20021;-83
2023/07/21 00:32:26;;;;;;;7.63;6.65;;;;;;;28.43;59.16;100751.88;5052354;28;20025;-82
2023/07/21 00:34:52;;;;;;;11.43;7.18;;;;;;;28.38;58.59;100751.06;5050179;28;20056;-81
2023/07/21 00:37:18;;;;;;;9.63;7.00;;;;;;;28.45;59.00;100754.56;5046955;28;20103;-81
2023/07/21 00:39:44;;;;;;;8.10;6.90;;;;;;;28.44;58.88;100755.44;5053079;28;20074;-82
2023/07/21 00:42:11;;;;;;;8.27;6.88;;;;;;;28.39;59.06;100738.56;5031884;28;20036;-82
2023/07/21 00:44:37;;;;;;;7.80;7.03;;;;;;;28.44;59.06;100750.06;5046963;28;20078;-81
2023/07/21 00:47:03;;;;;;;7.50;6.80;;;;;;;28.41;59.05;100747.47;5050762;28;20021;-82
2023/07/21 00:49:31;;;;;;;7.47;6.68;;;;;;;28.41;59.01;100748.34;5034815;28;20498;-83
2023/07/21 00:51:57;;;;;;;8.63;7.15;;;;;;;28.31;58.93;100732.44;5047117;28;20379;-83
2023/07/21 00:54:23;;;;;;;9.23;7.28;;;;;;;28.44;59.06;100752.75;5044618;28;20504;-82
2023/07/21 00:56:49;;;;;;;7.78;6.97;;;;;;;28.41;59.13;100745.66;5028737;28;20029;-83
2023/07/21 00:59:14;;;;;;;10.65;7.50;;;;;;;28.37;59.04;100745.75;5022725;28;20029;-82
2023/07/21 01:01:40;;;;;;;7.70;6.90;;;;;;;28.43;58.96;100759.06;5051004;28;20119;-81
2023/07/21 01:04:07;;;;;;;9.32;7.35;;;;;;;28.42;58.72;100766.22;5033792;28;20032;-82
2023/07/21 01:06:34;;;;;;;8.18;6.65;;;;;;;28.37;58.74;100762.75;5027575;28;20115;-82
2023/07/21 01:09:02;;;;;;;7.70;6.90;;;;;;;28.43;58.78;100764.44;5052547;28;20040;-82
2023/07/21 01:11:28;;;;;;;9.25;7.20;;;;;;;28.40;58.74;100767.16;5048539;28;20102;-82
2023/07/21 01:13:55;;;;;;;8.00;7.07;;;;;;;28.35;58.83;100751.16;5030944;28;20700;-82
2023/07/21 01:16:25;;;;;;;8.15;7.03;;;;;;;28.38;58.81;100758.25;5048616;28;20033;-81
2023/07/21 01:18:51;;;;;;;8.45;7.25;;;;;;;28.28;59.10;100746.81;5030325;28;20087;-81
2023/07/21 01:21:23;;;;;;;8.73;7.00;;;;;;;28.38;59.18;100760.94;5033210;28;20025;-82
2023/07/21 01:23:55;;;;;;;9.25;6.85;;;;;;;28.36;59.30;100763.69;5029077;28;20026;-82
2023/07/21 01:26:21;;;;;;;7.80;7.00;;;;;;;28.38;58.88;100760.94;5017198;28;20363;-81
2023/07/21 01:28:48;;;;;;;8.18;7.13;;;;;;;28.32;59.16;100755.69;5034094;28;20033;-81
2023/07/21 01:31:14;;;;;;;8.18;6.97;;;;;;;28.36;59.17;100755.63;5050424;28;20067;-81
2023/07/21 01:33:40;;;;;;;8.48;6.95;;;;;;;28.37;58.94;100761.88;5032013;28;20078;-81
2023/07/21 01:36:07;;;;;;;7.95;6.75;;;;;;;28.33;58.73;100758.34;5031408;28;20419;-82
2023/07/21 01:38:33;;;;;;;9.65;6.80;;;;;;;28.30;58.88;100755.75;5030762;28;20027;-81
2023/07/21 01:40:59;;;;;;;7.78;6.90;;;;;;;28.30;59.12;100757.50;5032511;28;20490;-80
2023/07/21 01:43:25;;;;;;;9.68;7.28;;;;;;;28.33;58.80;100757.47;5033588;28;20124;-80
2023/07/21 01:45:50;;;;;;;9.32;6.95;;;;;;;28.33;58.90;100769.09;5027377;28;20087;-80
2023/07/21 01:48:17;;;;;;;7.22;6.50;;;;;;;28.30;58.78;100762.88;5046928;28;20029;-81
2023/07/21 01:50:42;;;;;;;9.27;7.07;;;;;;;28.33;59.01;100773.59;5049095;28;20482;-81
2023/07/21 01:53:15;;;;;;;8.10;6.85;;;;;;;28.22;58.77;100752.31;5032995;28;20231;-81
2023/07/21 01:55:52;;;;;;;7.95;6.85;;;;;;;28.31;58.76;100768.25;5033472;28;20020;-81
2023/07/21 01:58:19;;;;;;;7.72;6.72;;;;;;;28.30;58.48;100766.47;5043231;28;20029;-81
2023/07/21 02:00:45;;;;;;;9.35;6.72;;;;;;;28.25;58.62;100770.16;5030498;28;20037;-81
2023/07/21 02:03:11;;;;;;;10.45;7.32;;;;;;;28.22;58.82;100772.00;5030497;28;20051;-81
2023/07/21 02:05:37;;;;;;;8.43;6.90;;;;;;;28.30;58.08;100776.31;5020605;28;20033;-82
2023/07/21 02:08:03;;;;;;;7.45;6.65;;;;;;;28.29;58.54;100775.44;5044041;28;20459;-82
2023/07/21 02:10:29;;;;;;;7.50;6.72;;;;;;;28.23;58.39;100773.75;5043987;28;20075;-81
2023/07/21 02:12:54;;;;;;;8.70;6.90;;;;;;;28.18;58.54;100772.97;5048342;28;20490;-82
2023/07/21 02:15:20;;;;;;;7.65;6.82;;;;;;;28.25;58.41;100776.41;5051735;28;20047;-81
2023/07/21 02:17:45;;;;;;;8.48;6.78;;;;;;;28.28;58.12;100786.19;5049495;28;20501;-82
2023/07/21 02:20:11;;;;;;;9.10;6.78;;;;;;;28.27;58.10;100779.94;5046963;28;20037;-82
2023/07/21 02:22:39;;;;;;;7.72;6.75;;;;;;;28.11;58.21;100757.88;5049475;28;20040;-81
2023/07/21 02:25:06;;;;;;;7.95;6.82;;;;;;;28.21;58.67;100775.59;5032738;28;20056;-82
2023/07/21 02:27:33;;;;;;;7.78;6.13;;;;;;;28.26;58.56;100786.25;5047809;28;20034;-82
2023/07/21 02:30:00;;;;;;;7.30;6.60;;;;;;;28.25;58.03;100802.38;5047423;28;20648;-82
2023/07/21 02:32:28;;;;;;;8.57;6.43;;;;;;;28.26;58.26;100797.00;5048077;28;20033;-82
2023/07/21 02:34:53;;;;;;;7.75;6.50;;;;;;;28.07;58.45;100768.69;5028780;28;20610;-82
2023/07/21 02:37:19;;;;;;;7.72;6.85;;;;;;;28.05;58.17;100774.09;5023030;28;20056;-82
2023/07/21 02:39:45;;;;;;;7.30;6.38;;;;;;;28.23;58.12;100802.41;5026469;28;20100;-82
2023/07/21 02:42:11;;;;;;;6.95;6.20;;;;;;;28.26;58.42;100810.44;5029732;28;20030;-83
2023/07/21 02:44:36;;;;;;;7.88;6.65;;;;;;;28.03;58.49;100784.00;5020521;28;20056;-82
2023/07/21 02:47:02;;;;;;;6.60;5.93;;;;;;;28.22;58.39;100811.41;5022342;28;20037;-82
2023/07/21 02:49:29;;;;;;;10.00;6.70;;;;;;;28.26;58.22;100822.94;5022270;28;20026;-80
2023/07/21 02:51:55;;;;;;;7.35;6.55;;;;;;;28.25;58.00;100824.75;5023130;28;20029;-81
2023/07/21 02:54:20;;;;;;;8.55;6.20;;;;;;;28.19;58.76;100819.50;5014413;28;20030;-81
2023/07/21 02:56:46;;;;;;;7.80;6.68;;;;;;;28.25;58.48;100831.94;5028972;28;20034;-81
2023/07/21 02:59:12;;;;;;;8.95;6.55;;;;;;;28.25;58.08;100834.63;5028210;28;20109;-81
2023/07/21 03:01:38;;;;;;;6.93;6.18;;;;;;;28.26;58.05;100839.06;5024483;28;20029;-81
2023/07/21 03:04:04;;;;;;;8.25;6.32;;;;;;;28.19;58.25;100836.50;5027394;28;20052;-82
2023/07/21 03:06:30;;;;;;;9.32;6.65;;;;;;;28.24;58.46;100847.16;5024156;28;20026;-80
2023/07/21 03:08:56;;;;;;;8.98;6.07;;;;;;;28.23;58.22;100853.44;5023890;28;20502;-80
2023/07/21 03:11:22;;;;;;;7.72;6.35;;;;;;;28.07;58.03;100822.38;5019646;28;20025;-81
2023/07/21 03:13:48;;;;;;;7.30;6.50;;;;;;;28.15;58.35;100845.53;5023387;28;20037;-82
2023/07/21 03:16:14;;;;;;;7.90;6.35;;;;;;;28.07;57.85;100838.50;5024111;28;20033;-82
2023/07/21 03:18:40;;;;;;;6.95;6.25;;;;;;;28.13;57.85;100854.50;5010294;28;20120;-82
2023/07/21 03:21:05;;;;;;;6.88;6.10;;;;;;;28.13;57.98;100846.44;5020862;28;20472;-81
2023/07/21 03:23:32;;;;;;;7.35;6.30;;;;;;;28.21;58.21;100866.91;5024679;28;20029;-82
2023/07/21 03:25:58;;;;;;;7.55;6.22;;;;;;;28.15;58.34;100864.31;5027064;28;20060;-81
2023/07/21 03:28:26;;;;;;;6.85;6.15;;;;;;;28.20;58.10;100870.50;5020672;28;20479;-81
2023/07/21 03:30:58;;;;;;;7.93;6.40;;;;;;;28.15;58.03;100872.38;5018726;28;20075;-80
2023/07/21 03:33:24;;;;;;;8.07;6.20;;;;;;;28.11;58.18;100857.22;5025389;28;20033;-80
2023/07/21 03:36:00;;;;;;;8.55;5.95;;;;;;;28.15;58.46;100879.53;5035261;28;20103;-81
2023/07/21 03:38:27;;;;;;;7.82;6.45;;;;;;;28.10;58.34;100879.59;5031003;28;20033;-80
2023/07/21 03:41:07;;;;;;;6.43;5.63;;;;;;;28.10;58.34;100887.66;5023758;28;20030;-81
2023/07/21 03:43:33;;;;;;;7.35;5.70;;;;;;;28.17;58.08;100896.50;5031475;28;20406;-81
2023/07/21 03:46:00;;;;;;;8.98;6.07;;;;;;;28.18;58.19;100899.16;5014760;28;20025;-80
2023/07/21 03:48:27;;;;;;;8.13;6.32;;;;;;;28.15;58.22;100907.28;5030997;28;20021;-81
2023/07/21 03:51:01;;;;;;;7.63;6.18;;;;;;;28.15;57.80;100915.34;5029922;28;20029;-80
2023/07/21 03:53:28;;;;;;;8.15;6.00;;;;;;;28.16;58.20;100916.22;5028014;28;20048;-80
2023/07/21 03:55:53;;;;;;;7.22;5.97;;;;;;;28.17;58.06;100918.88;5029607;28;20034;-81
2023/07/21 03:58:20;;;;;;;8.98;6.25;;;;;;;28.18;58.28;100923.34;5009083;28;20029;-81
2023/07/21 04:00:46;;;;;;;7.78;5.90;;;;;;;28.14;58.27;100926.09;5010000;28;20029;-81
2023/07/21 04:03:13;;;;;;;8.50;5.95;;;;;;;28.11;58.34;100928.81;5032797;28;20043;-81
2023/07/21 04:05:39;;;;;;;7.43;6.03;;;;;;;28.15;58.10;100931.47;5031392;28;20040;-82
2023/07/21 04:08:05;;;;;;;9.30;6.35;;;;;;;28.07;58.04;100925.31;5029290;28;20117;-81
2023/07/21 04:10:31;;;;;;;7.80;5.72;;;;;;;28.07;58.12;100927.09;5025380;28;20025;-81
2023/07/21 04:12:57;;;;;;;6.55;5.88;;;;;;;28.11;58.22;100929.72;5013002;28;20025;-82
2023/07/21 04:15:26;;;;;;;8.57;5.85;;;;;;;28.14;57.94;100944.91;5029978;28;20037;-80
2023/07/21 04:17:52;;;;;;;9.73;6.15;;;;;;;28.11;58.37;100942.25;5032052;28;20386;-81
2023/07/21 04:20:19;;;;;;;10.60;6.38;;;;;;;28.10;58.05;100949.41;5036231;28;20091;-82
2023/07/21 04:22:45;;;;;;;7.55;6.45;;;;;;;27.91;57.92;100931.81;5026740;28;20033;-82
2023/07/21 04:25:11;;;;;;;9.25;5.93;;;;;;;28.11;58.19;100967.31;5032457;28;20025;-82
2023/07/21 04:28:05;;;;;;;8.35;6.18;;;;;;;27.93;58.19;100959.53;5029047;28;20041;-84
2023/07/21 04:30:31;;;;;;;7.22;5.85;;;;;;;28.08;57.87;100977.22;5025431;28;20025;-84
2023/07/21 04:32:58;;;;;;;9.35;6.20;;;;;;;28.13;58.04;100994.13;5013472;28;20503;-84
2023/07/21 04:35:24;;;;;;;7.53;6.03;;;;;;;28.12;58.29;100995.94;5041749;28;20095;-84
2023/07/21 04:37:49;;;;;;;7.93;6.18;;;;;;;28.12;58.55;101009.34;5047055;28;20024;-82
2023/07/21 04:40:15;;;;;;;7.07;5.88;;;;;;;27.90;57.97;100978.34;5032279;28;20562;-83
2023/07/21 04:42:41;;;;;;;8.63;6.50;;;;;;;28.11;58.05;101015.66;5048151;28;20032;-83
2023/07/21 04:45:11;;;;;;;8.20;6.68;;;;;;;27.90;58.11;100990.00;5033781;28;20431;-82
2023/07/21 04:47:38;;;;;;;9.27;6.85;;;;;;;27.75;57.77;100964.22;5041927;28;20609;-82
2023/07/21 04:50:05;;;;;;;9.23;6.60;;;;;;;28.04;57.70;101016.63;5037578;28;20041;-83
2023/07/21 04:52:31;;;;;;;7.40;6.40;;;;;;;28.09;58.34;101033.59;5044499;28;20052;-83
2023/07/21 04:54:56;;;;;;;6.90;6.20;;;;;;;28.11;58.17;101034.44;5032680;28;20490;-85
2023/07/21 04:57:22;;;;;;;9.75;6.07;;;;;;;28.13;58.16;101043.38;5049486;28;20035;-83
2023/07/21 04:59:48;;;;;;;8.57;6.43;;;;;;;28.12;58.41;101036.19;5029924;28;20458;-82
2023/07/21 05:02:14;;;;;;;6.75;5.88;;;;;;;28.14;58.41;101041.56;5042559;28;20057;-83
2023/07/21 05:04:41;;;;;;;7.80;6.65;;;;;;;28.12;58.46;101052.31;5007528;28;20031;-82
2023/07/21 05:07:08;;;;;;;9.98;6.38;;;;;;;27.62;58.21;100957.22;5025063;28;20037;-82
2023/07/21 05:09:39;;;;;;;7.88;6.40;;;;;;;28.11;58.00;101050.56;5046813;28;20111;-83
2023/07/21 05:12:06;;;;;;;8.00;6.18;;;;;;;28.12;58.30;101046.94;5029821;28;20028;-82
2023/07/21 05:14:33;;;;;;;7.15;6.28;;;;;;;28.11;58.19;101055.00;5045773;28;20059;-83
2023/07/21 05:16:58;;;;;;;6.88;6.07;;;;;;;27.79;58.38;100997.25;5020925;28;20029;-81
2023/07/21 05:19:24;;;;;;;8.88;6.57;;;;;;;28.11;58.12;101050.56;5043426;28;20047;-82
2023/07/21 05:21:50;;;;;;;6.95;6.22;;;;;;;28.09;58.14;101054.16;5042791;28;20033;-82
2023/07/21 05:24:16;;;;;;;10.30;6.60;;;;;;;28.01;58.08;101043.53;5045778;28;20052;-80
2023/07/21 05:26:41;;;;;;;8.00;6.63;;;;;;;28.09;58.02;101049.69;5028134;28;20167;-82
2023/07/21 05:29:14;;;;;;;8.00;6.90;;;;;;;28.02;58.04;101030.09;5039977;28;20040;-83
2023/07/21 05:31:40;;;;;;;9.93;6.97;;;;;;;28.05;57.83;101034.53;5030347;28;20670;-81
2023/07/21 05:34:07;;;;;;;8.32;6.65;;;;;;;28.11;57.96;101044.28;5041851;28;20041;-80
2023/07/21 05:36:34;;;;;;;8.63;6.53;;;;;;;28.11;57.82;101046.97;5044386;28;20461;-83
2023/07/21 05:39:00;;;;;;;8.43;6.40;;;;;;;28.08;58.32;101047.91;5048239;28;20029;-82
2023/07/21 05:41:26;;;;;;;7.95;6.43;;;;;;;28.01;58.22;101043.53;5040420;28;20027;-80
2023/07/21 05:43:52;;;;;;;7.38;6.53;;;;;;;28.11;58.34;101060.38;5046363;28;20418;-81
2023/07/21 05:46:17;;;;;;;8.07;6.20;;;;;;;28.07;57.62;101054.19;5040567;28;20149;-82
2023/07/21 05:48:43;;;;;;;7.85;6.85;;;;;;;28.01;58.31;101038.16;5042937;28;20032;-83
2023/07/21 05:51:12;;;;;;;7.47;6.30;;;;;;;28.09;57.92;101059.50;5041368;28;20017;-82
2023/07/21 05:53:38;;;;;;;7.22;6.00;;;;;;;28.07;58.25;101064.03;5031566;28;20033;-82
2023/07/21 05:56:07;;;;;;;7.80;6.20;;;;;;;28.08;57.68;101076.56;5050600;28;20482;-81
2023/07/21 05:58:35;;;;;;;7.30;6.35;;;;;;;28.09;58.17;101068.47;5032444;28;20453;-82
2023/07/21 06:01:00;;;;;;;8.43;6.53;;;;;;;28.09;57.67;101065.81;5012746;28;20053;-83
2023/07/21 06:03:28;;;;;;;7.40;6.22;;;;;;;27.91;58.06;101031.13;5045500;28;20056;-82
2023/07/21 06:05:54;;;;;;;8.30;7.07;;;;;;;27.93;57.58;101034.69;5032437;28;20021;-82
2023/07/21 06:08:20;;;;;;;7.32;5.78;;;;;;;27.99;57.99;101051.59;5049396;28;20080;-81
2023/07/21 06:10:45;;;;;;;9.70;6.85;;;;;;;27.89;58.07;101041.88;5016435;28;20075;-82
2023/07/21 06:13:11;;;;;;;9.05;6.47;;;;;;;27.79;57.94;101016.03;5050059;28;20100;-82
2023/07/21 06:15:37;;;;;;;7.07;6.00;;;;;;;28.07;57.83;101074.75;5032897;28;20474;-81
2023/07/21 06:18:04;;;;;;;8.93;6.82;;;;;;;28.09;57.82;101081.00;5032146;28;20024;-81
2023/07/21 06:20:29;;;;;;;6.50;5.80;;;;;;;28.14;57.91;101087.22;5050381;28;20478;-81
2023/07/21 06:22:56;;;;;;;8.35;6.25;;;;;;;28.02;57.61;101067.69;5032413;28;20029;-81
2023/07/21 06:25:22;;;;;;;7.38;6.22;;;;;;;28.07;57.61;101078.34;5050121;28;20044;-81
2023/07/21 06:27:48;;;;;;;6.60;5.80;;;;;;;28.12;57.79;101091.72;5048697;28;20033;-82
2023/07/21 06:30:14;;;;;;;6.50;5.90;;;;;;;28.10;57.96;101097.09;5032418;28;20033;-83
2023/07/21 06:32:43;;;;;;;6.55;5.85;;;;;;;28.12;57.46;101099.78;5050125;28;20071;-82
2023/07/21 06:35:10;;;;;;;6.75;6.15;;;;;;;28.09;57.39;101089.97;5049932;28;20132;-82
2023/07/21 06:37:38;;;;;;;7.25;5.88;;;;;;;28.11;57.56;101090.84;5050130;28;20032;-81
2023/07/21 06:40:07;;;;;;;7.28;5.95;;;;;;;28.12;57.39;101086.34;5050314;28;20056;-80
2023/07/21 06:42:33;;;;;;;6.45;5.70;;;;;;;28.02;57.72;101073.06;5049244;28;20107;-82
2023/07/21 06:44:59;;;;;;;7.00;5.55;;;;;;;28.14;57.44;101087.22;5050372;28;20104;-85
2023/07/21 06:47:24;;;;;;;7.55;6.13;;;;;;;28.08;57.17;101077.44;5050219;28;20036;-82
2023/07/21 06:49:50;;;;;;;6.38;5.78;;;;;;;28.01;57.36;101065.88;5050301;28;20029;-83
2023/07/21 06:52:16;;;;;;;7.78;6.20;;;;;;;28.15;57.49;101087.19;5032580;28;20444;-83
2023/07/21 06:54:42;;;;;;;6.70;6.00;;;;;;;28.16;57.26;101088.09;5032790;28;20434;-82
2023/07/21 06:57:10;;;;;;;7.03;5.50;;;;;;;28.16;57.25;101094.31;5049157;28;20021;-82
2023/07/21 06:59:36;;;;;;;6.68;5.97;;;;;;;28.14;56.70;101088.09;5050066;28;20032;-81
2023/07/21 07:02:02;;;;;;;7.05;6.15;;;;;;;28.13;56.99;101089.00;5050055;28;20048;-81
2023/07/21 07:04:27;;;;;;;7.00;5.78;;;;;;;28.02;57.14;101070.38;5049756;28;20479;-80
2023/07/21 07:06:55;;;;;;;5.78;5.20;;;;;;;28.09;57.09;101084.59;5050167;28;20021;-81
2023/07/21 07:09:23;;;;;;;6.63;5.90;;;;;;;28.16;56.87;101099.69;5050072;28;20100;-80
2023/07/21 07:11:49;;;;;;;6.95;6.13;;;;;;;28.16;56.92;101101.50;5049482;28;20533;-79
2023/07/21 07:14:15;;;;;;;6.40;5.70;;;;;;;28.10;56.78;101097.09;5054011;28;20025;-80
2023/07/21 07:16:41;;;;;;;7.50;5.80;;;;;;;28.15;56.95;101102.41;5054532;28;20021;-80
2023/07/21 07:19:07;;;;;;;8.55;6.25;;;;;;;28.17;56.73;101100.59;5054288;28;20027;-81
2023/07/21 07:21:32;;;;;;;6.32;5.68;;;;;;;28.12;56.73;101095.28;5054112;28;20454;-81
2023/07/21 07:23:58;;;;;;;6.82;5.97;;;;;;;28.16;56.83;101101.50;5054237;28;20021;-81
2023/07/21 07:26:24;;;;;;;6.72;5.90;;;;;;;28.13;56.50;101090.78;5054249;28;20044;-82
2023/07/21 07:28:49;;;;;;;6.95;6.05;;;;;;;28.13;56.65;101102.44;5052628;28;20517;-81
2023/07/21 07:31:15;;;;;;;7.35;5.65;;;;;;;28.15;56.73;101102.41;5054323;28;20509;-81
2023/07/21 07:33:40;;;;;;;6.68;5.95;;;;;;;28.18;57.01;101108.63;5053956;28;20468;-80
2023/07/21 07:36:06;;;;;;;7.60;6.15;;;;;;;28.18;56.90;101108.63;5053987;28;20041;-81
2023/07/21 07:38:32;;;;;;;6.43;5.70;;;;;;;28.19;56.99;101106.81;5053495;28;20469;-80
2023/07/21 07:41:03;;;;;;;6.78;6.10;;;;;;;28.20;56.72;101109.50;5053708;28;20051;-80
2023/07/21 07:43:28;;;;;;;7.45;5.68;;;;;;;28.04;56.84;101083.75;5053579;28;20029;-79
2023/07/21 07:45:54;;;;;;;8.30;5.90;;;;;;;28.12;56.78;101092.59;5052626;28;20040;-81
2023/07/21 07:48:22;;;;;;;6.03;5.40;;;;;;;28.11;56.88;101100.66;5035479;28;20032;-80
2023/07/21 07:50:48;;;;;;;6.68;5.85;;;;;;;28.00;57.13;101087.38;5053658;28;20025;-80
2023/07/21 07:53:14;;;;;;;6.45;5.85;;;;;;;28.21;57.09;101113.06;5053995;28;20048;-79
2023/07/21 07:55:40;;;;;;;7.90;5.95;;;;;;;28.16;56.94;101106.88;5053649;28;20021;-80
2023/07/21 07:58:07;;;;;;;6.78;6.03;;;;;;;28.14;57.25;101106.00;5053530;28;20486;-81
2023/07/21 08:00:38;;;;;;;6.50;5.80;;;;;;;28.23;57.06;101116.63;5052678;28;20033;-81
2023/07/21 08:03:04;;;;;;;8.00;6.30;;;;;;;28.19;57.13;101118.47;5053544;28;20423;-81
2023/07/21 08:05:40;;;;;;;6.78;6.00;;;;;;;28.24;57.26;101131.84;5035968;28;20441;-80
2023/07/21 08:08:07;;;;;;;6.53;5.88;;;;;;;28.19;57.19;101123.84;5053545;28;20104;-81
2023/07/21 08:10:33;;;;;;;6.65;5.93;;;;;;;28.31;57.47;101136.19;5053789;28;20036;-82
2023/07/21 08:13:01;;;;;;;7.25;6.25;;;;;;;28.25;57.35;101148.84;5053591;28;20021;-82
2023/07/21 08:15:27;;;;;;;6.88;5.65;;;;;;;28.31;57.33;101140.69;5053732;28;20035;-81
2023/07/21 08:17:53;;;;;;;7.00;6.18;;;;;;;28.23;57.06;101138.09;5052716;28;20037;-80
2023/07/21 08:20:19;;;;;;;6.63;6.03;;;;;;;28.21;57.02;101138.16;5053462;28;20035;-81
2023/07/21 08:22:49;;;;;;;7.43;6.38;;;;;;;28.23;57.27;101144.34;5052994;28;20481;-81
2023/07/21 08:25:15;;;;;;;6.75;5.88;;;;;;;28.28;57.38;101144.31;5035324;28;20781;-81
2023/07/21 08:27:41;;;;;;;7.05;6.35;;;;;;;28.33;57.44;101146.94;5053386;28;20021;-82
2023/07/21 08:30:10;;;;;;;7.85;6.35;;;;;;;28.27;57.39;101147.91;5053514;28;20565;-81
2023/07/21 08:32:36;;;;;;;8.18;6.30;;;;;;;28.26;57.33;101151.50;5049880;28;20094;-80
2023/07/21 08:35:03;;;;;;;6.85;6.18;;;;;;;28.22;57.56;101145.28;5034518;28;20056;-80
2023/07/21 08:37:30;;;;;;;7.63;6.43;;;;;;;28.29;57.65;101155.94;5044319;28;20068;-81
2023/07/21 08:39:55;;;;;;;6.82;5.97;;;;;;;28.29;57.63;101137.16;5048330;28;20036;-81
2023/07/21 08:42:23;;;;;;;7.82;6.63;;;;;;;28.34;57.26;101156.75;5052433;28;20025;-81
2023/07/21 08:44:51;;;;;;;7.18;6.47;;;;;;;28.23;57.34;101132.72;5052919;28;20029;-81
2023/07/21 08:47:17;;;;;;;7.18;6.47;;;;;;;28.32;57.81;101159.47;5040422;28;20059;-82
2023/07/21 08:49:42;;;;;;;8.45;6.70;;;;;;;28.31;57.50;101149.63;5052767;28;20104;-79
2023/07/21 08:52:08;;;;;;;7.25;6.50;;;;;;;28.36;57.77;101150.47;5035033;28;20404;-81
2023/07/21 08:54:34;;;;;;;7.03;6.20;;;;;;;28.34;57.68;101152.28;5051424;28;20032;-80
2023/07/21 08:56:59;;;;;;;7.50;6.43;;;;;;;28.37;57.68;101159.41;5051515;28;20094;-80
2023/07/21 08:59:25;;;;;;;8.57;6.50;;;;;;;28.39;57.39;101158.47;5052460;28;20508;-80
2023/07/21 09:01:50;;;;;;;7.25;6.50;;;;;;;28.25;57.63;101144.34;5052706;28;20502;-80
2023/07/21 09:04:21;;;;;;;7.05;6.25;;;;;;;28.35;57.09;101158.56;5052423;28;20115;-82
2023/07/21 09:06:55;;;;;;;7.25;6.00;;;;;;;28.41;57.28;101153.97;5052478;28;20075;-81
2023/07/21 09:09:22;;;;;;;8.00;6.50;;;;;;;28.45;57.65;101156.59;5034638;28;20028;-80
2023/07/21 09:11:48;;;;;;;8.25;6.25;;;;;;;28.42;57.72;101160.22;5052814;28;20234;-81
2023/07/21 09:14:17;;;;;;;6.82;6.13;;;;;;;28.41;57.25;101166.53;5051051;28;20071;-80
2023/07/21 09:16:43;;;;;;;8.50;6.50;;;;;;;28.40;57.37;101168.31;5034571;28;20025;-80
2023/07/21 09:19:10;;;;;;;7.72;6.40;;;;;;;28.26;57.11;101129.09;5053116;28;20127;-82
2023/07/21 09:21:36;;;;;;;6.85;6.15;;;;;;;28.36;57.30;101163.91;5059351;28;20029;-82
2023/07/21 09:24:03;;;;;;;6.90;6.10;;;;;;;28.42;57.44;101163.81;5035255;28;20028;-81
2023/07/21 09:26:28;;;;;;;6.72;6.07;;;;;;;28.41;57.25;101162.03;5052326;28;20024;-81
2023/07/21 09:28:54;;;;;;;7.07;6.38;;;;;;;28.39;57.69;101150.41;5033830;28;20035;-83
2023/07/21 09:31:32;;;;;;;6.38;5.78;;;;;;;28.40;57.41;101156.69;5050688;28;20146;-82
2023/07/21 09:34:16;;;;;;;7.72;5.55;;;;;;;28.37;57.31;101151.38;5051500;28;20900;-85
2023/07/21 09:36:45;;;;;;;6.93;6.20;;;;;;;28.43;57.16;101148.59;5015652;28;20037;-85
2023/07/21 09:39:14;;;;;;;7.53;6.03;;;;;;;28.38;56.96;101147.75;5032178;28;20049;-85
2023/07/21 09:41:40;;;;;;;6.93;6.22;;;;;;;28.40;57.43;101152.19;5010633;28;20021;-85
2023/07/21 09:44:09;;;;;;;6.97;5.80;;;;;;;28.42;57.38;101138.75;5023704;28;20034;-85
2023/07/21 09:46:35;;;;;;;7.35;5.78;;;;;;;28.07;57.40;101074.75;5010670;28;20235;-87
2023/07/21 09:49:01;;;;;;;6.20;5.60;;;;;;;28.38;57.36;101132.50;5013026;28;20029;-86
2023/07/21 09:51:29;;;;;;;6.90;6.07;;;;;;;28.49;57.75;101148.53;5029117;28;20021;-86
2023/07/21 09:53:55;;;;;;;6.70;5.95;;;;;;;28.25;57.40;101114.78;4996421;28;20402;-86
2023/07/21 09:56:22;;;;;;;8.30;5.97;;;;;;;28.42;57.25;101157.53;5010731;28;20522;-87
2023/07/21 09:59:00;;;;;;;8.23;5.97;;;;;;;28.24;57.36;101110.34;4992425;28;20060;-85
2023/07/21 10:01:26;;;;;;;7.32;6.20;;;;;;;28.47;57.25;101154.78;4996875;28;20025;-86
2023/07/21 10:03:52;;;;;;;8.50;6.13;;;;;;;28.14;57.41;101092.59;5021656;28;20384;-87
2023/07/21 10:06:19;;;;;;;6.70;5.78;;;;;;;28.37;57.10;101138.81;4987072;28;20076;-87
2023/07/21 10:08:45;;;;;;;7.55;6.05;;;;;;;28.41;57.38;101151.28;5022554;28;20021;-87
2023/07/21 10:11:13;;;;;;;6.70;6.00;;;;;;;28.60;58.15;101167.19;4993180;28;20437;-87
2023/07/21 10:13:47;;;;;;;7.28;5.60;;;;;;;28.22;57.43;101117.53;4992281;28;20025;-87
2023/07/21 10:16:13;;;;;;;7.18;5.82;;;;;;;28.57;57.69;101170.78;5010261;28;20048;-86
2023/07/21 10:19:08;;;;;;;7.03;6.32;;;;;;;28.57;57.42;101175.28;5029980;28;20556;-86
2023/07/21 10:21:50;;;;;;;7.70;5.80;;;;;;;28.47;57.50;101144.97;5024877;28;20044;-85
2023/07/21 10:24:25;;;;;;;8.60;5.50;;;;;;;28.53;57.48;101157.44;5011854;28;20021;-85
2023/07/21 10:27:27;;;;;;;6.68;5.63;;;;;;;28.34;57.81;101109.31;5012450;28;20087;-85
2023/07/21 10:29:57;;;;;;;6.53;5.53;;;;;;;28.37;57.56;101114.63;5030469;28;20108;-86
2023/07/21 10:32:24;;;;;;;6.53;5.68;;;;;;;28.43;57.77;101125.28;5014150;28;20028;-88
2023/07/21 10:34:52;;;;;;;6.35;5.72;;;;;;;28.54;57.63;101140.41;5007229;28;20056;-87
2023/07/21 10:37:17;;;;;;;7.82;5.88;;;;;;;28.60;57.20;101161.81;5047992;28;20534;-87
2023/07/21 10:39:53;;;;;;;6.80;5.45;;;;;;;28.55;57.02;101148.44;5028312;28;20028;-86
2023/07/21 10:42:18;;;;;;;6.78;6.07;;;;;;;28.62;57.38;101160.88;5032012;28;20025;-86
2023/07/21 10:44:46;;;;;;;7.07;5.60;;;;;;;28.17;57.40;101087.16;5032946;28;20027;-87
2023/07/21 10:47:19;;;;;;;6.97;5.47;;;;;;;28.69;57.10;101160.78;5050513;28;20096;-85
2023/07/21 10:49:46;;;;;;;7.88;5.70;;;;;;;28.60;57.28;101160.03;5032477;28;20493;-85
2023/07/21 10:52:12;;;;;;;6.60;5.60;;;;;;;28.55;57.19;101132.31;5033050;28;20017;-85
2023/07/21 10:54:38;;;;;;;6.70;5.68;;;;;;;28.71;56.96;101157.16;5030456;28;20049;-85
2023/07/21 10:57:04;;;;;;;5.93;5.05;;;;;;;28.59;57.70;101147.47;5032929;28;20504;-85
2023/07/21 10:59:31;;;;;;;7.30;5.88;;;;;;;28.69;57.80;101161.69;5050717;28;20025;-87
2023/07/21 11:01:57;;;;;;;6.72;5.65;;;;;;;28.74;57.48;101164.28;5032793;28;20402;-87
2023/07/21 11:04:23;;;;;;;7.18;5.82;;;;;;;28.69;57.44;101164.38;5050322;28;20021;-87
2023/07/21 11:06:51;;;;;;;7.75;5.95;;;;;;;28.64;57.69;101150.13;5032823;28;20093;-87
2023/07/21 11:09:19;;;;;;;7.60;6.40;;;;;;;28.60;57.29;101146.59;5050335;28;20044;-87
2023/07/21 11:11:46;;;;;;;7.45;6.05;;;;;;;28.73;57.85;101160.72;5031673;28;20072;-87
2023/07/21 11:14:13;;;;;;;6.50;5.90;;;;;;;28.62;58.11;101142.06;5032456;28;20071;-87
2023/07/21 11:16:49;;;;;;;6.93;5.65;;;;;;;28.50;57.86;101127.94;5024824;28;20486;-87
2023/07/21 11:19:16;;;;;;;6.68;5.63;;;;;;;28.78;57.91;101166.03;5050106;28;20025;-86
2023/07/21 11:21:42;;;;;;;7.15;6.10;;;;;;;28.80;57.89;101161.50;5032162;28;20064;-87
2023/07/21 11:24:10;;;;;;;7.72;6.00;;;;;;;28.81;58.04;101166.00;5015643;28;20060;-87